sensor_id;sensor_type;location;lat;lon;timestamp;P1;durP1;ratioP1;P2;durP2;ratioP2
6392;SDS011;3229;42.674;23.282;2022-08-23T00:02:26;17.13;;;12.67;;
6392;SDS011;3229;42.674;23.282;2022-08-23T00:04:53;15.03;;;13.43;;
6392;SDS011;3229;42.674;23.282;2022-08-23T00:07:20;17.45;;;12.40;;
6392;SDS011;3229;42.674;23.282;2022-08-23T00:09:47;15.77;;;12.83;;
6392;SDS011;3229;42.674;23.282;2022-08-23T00:12:16;15.67;;;13.90;;
6392;SDS011;3229;42.674;23.282;2022-08-23T00:14:46;16.37;;;13.40;;
6392;SDS011;3229;42.674;23.282;2022-08-23T00:17:15;16.00;;;13.43;;
6392;SDS011;3229;42.674;23.282;2022-08-23T00:19:44;16.50;;;13.53;;
6392;SDS011;3229;42.674;23.282;2022-08-23T00:22:13;18.27;;;14.23;;
6392;SDS011;3229;42.674;23.282;2022-08-23T00:24:40;17.83;;;12.63;;
6392;SDS011;3229;42.674;23.282;2022-08-23T00:27:08;17.42;;;13.18;;
6392;SDS011;3229;42.674;23.282;2022-08-23T00:29:37;18.83;;;13.18;;
6392;SDS011;3229;42.674;23.282;2022-08-23T00:32:07;16.17;;;13.10;;
6392;SDS011;3229;42.674;23.282;2022-08-23T00:34:35;16.95;;;13.75;;
6392;SDS011;3229;42.674;23.282;2022-08-23T00:37:04;18.17;;;14.23;;
6392;SDS011;3229;42.674;23.282;2022-08-23T00:39:33;15.50;;;13.20;;
6392;SDS011;3229;42.674;23.282;2022-08-23T00:42:04;14.35;;;12.85;;
6392;SDS011;3229;42.674;23.282;2022-08-23T00:44:49;17.15;;;12.10;;
6392;SDS011;3229;42.674;23.282;2022-08-23T00:47:34;13.65;;;12.25;;
6392;SDS011;3229;42.674;23.282;2022-08-23T00:50:14;12.60;;;11.05;;
6392;SDS011;3229;42.674;23.282;2022-08-23T00:52:48;14.88;;;10.95;;
6392;SDS011;3229;42.674;23.282;2022-08-23T00:55:20;15.50;;;12.00;;
6392;SDS011;3229;42.674;23.282;2022-08-23T00:57:47;15.75;;;11.90;;
6392;SDS011;3229;42.674;23.282;2022-08-23T01:00:15;15.02;;;12.18;;
6392;SDS011;3229;42.674;23.282;2022-08-23T01:02:42;13.57;;;12.23;;
6392;SDS011;3229;42.674;23.282;2022-08-23T01:05:11;15.98;;;11.90;;
6392;SDS011;3229;42.674;23.282;2022-08-23T01:07:42;16.90;;;12.80;;
6392;SDS011;3229;42.674;23.282;2022-08-23T01:10:15;16.33;;;12.93;;
6392;SDS011;3229;42.674;23.282;2022-08-23T01:12:51;21.83;;;13.90;;
6392;SDS011;3229;42.674;23.282;2022-08-23T01:15:22;17.25;;;13.68;;
6392;SDS011;3229;42.674;23.282;2022-08-23T01:17:54;15.88;;;13.65;;
6392;SDS011;3229;42.674;23.282;2022-08-23T01:20:27;23.33;;;13.98;;
6392;SDS011;3229;42.674;23.282;2022-08-23T01:23:01;21.90;;;14.95;;
6392;SDS011;3229;42.674;23.282;2022-08-23T01:25:34;20.10;;;15.13;;
6392;SDS011;3229;42.674;23.282;2022-08-23T01:28:03;16.60;;;14.15;;
6392;SDS011;3229;42.674;23.282;2022-08-23T01:30:31;19.35;;;14.77;;
6392;SDS011;3229;42.674;23.282;2022-08-23T01:33:00;18.77;;;14.65;;
6392;SDS011;3229;42.674;23.282;2022-08-23T01:35:30;18.10;;;15.05;;
6392;SDS011;3229;42.674;23.282;2022-08-23T01:38:02;20.00;;;15.35;;
6392;SDS011;3229;42.674;23.282;2022-08-23T01:40:30;17.20;;;14.77;;
6392;SDS011;3229;42.674;23.282;2022-08-23T01:42:59;17.52;;;15.63;;
6392;SDS011;3229;42.674;23.282;2022-08-23T01:45:26;18.92;;;16.50;;
6392;SDS011;3229;42.674;23.282;2022-08-23T01:47:54;19.50;;;15.45;;
6392;SDS011;3229;42.674;23.282;2022-08-23T01:50:23;20.63;;;15.57;;
6392;SDS011;3229;42.674;23.282;2022-08-23T01:52:50;17.83;;;15.88;;
6392;SDS011;3229;42.674;23.282;2022-08-23T01:55:18;18.25;;;15.73;;
6392;SDS011;3229;42.674;23.282;2022-08-23T01:57:46;24.95;;;18.05;;
6392;SDS011;3229;42.674;23.282;2022-08-23T02:00:17;25.53;;;18.33;;
6392;SDS011;3229;42.674;23.282;2022-08-23T02:02:44;19.92;;;16.08;;
6392;SDS011;3229;42.674;23.282;2022-08-23T02:05:12;18.05;;;16.13;;
6392;SDS011;3229;42.674;23.282;2022-08-23T02:07:39;23.17;;;15.88;;
6392;SDS011;3229;42.674;23.282;2022-08-23T02:10:06;18.45;;;15.98;;
6392;SDS011;3229;42.674;23.282;2022-08-23T02:12:35;18.50;;;15.23;;
6392;SDS011;3229;42.674;23.282;2022-08-23T02:15:02;17.30;;;15.27;;
6392;SDS011;3229;42.674;23.282;2022-08-23T02:17:31;18.13;;;14.73;;
6392;SDS011;3229;42.674;23.282;2022-08-23T02:19:59;21.60;;;15.40;;
6392;SDS011;3229;42.674;23.282;2022-08-23T02:22:28;17.80;;;13.85;;
6392;SDS011;3229;42.674;23.282;2022-08-23T02:24:54;16.63;;;14.82;;
6392;SDS011;3229;42.674;23.282;2022-08-23T02:27:21;15.18;;;13.32;;
6392;SDS011;3229;42.674;23.282;2022-08-23T02:29:48;15.63;;;13.18;;
6392;SDS011;3229;42.674;23.282;2022-08-23T02:32:16;14.75;;;13.13;;
6392;SDS011;3229;42.674;23.282;2022-08-23T02:34:46;14.27;;;12.18;;
6392;SDS011;3229;42.674;23.282;2022-08-23T02:37:13;14.10;;;12.25;;
6392;SDS011;3229;42.674;23.282;2022-08-23T02:39:40;15.60;;;11.50;;
6392;SDS011;3229;42.674;23.282;2022-08-23T02:42:07;13.05;;;10.80;;
6392;SDS011;3229;42.674;23.282;2022-08-23T02:44:35;13.30;;;10.70;;
6392;SDS011;3229;42.674;23.282;2022-08-23T02:47:02;13.27;;;9.70;;
6392;SDS011;3229;42.674;23.282;2022-08-23T02:49:31;12.73;;;9.77;;
6392;SDS011;3229;42.674;23.282;2022-08-23T02:52:00;10.73;;;9.02;;
6392;SDS011;3229;42.674;23.282;2022-08-23T02:54:27;10.93;;;9.60;;
6392;SDS011;3229;42.674;23.282;2022-08-23T02:56:54;15.48;;;9.13;;
6392;SDS011;3229;42.674;23.282;2022-08-23T02:59:20;11.05;;;8.95;;
6392;SDS011;3229;42.674;23.282;2022-08-23T03:01:47;11.77;;;9.25;;
6392;SDS011;3229;42.674;23.282;2022-08-23T03:04:15;9.30;;;8.45;;
6392;SDS011;3229;42.674;23.282;2022-08-23T03:06:42;8.18;;;7.38;;
6392;SDS011;3229;42.674;23.282;2022-08-23T03:09:11;8.25;;;7.32;;
6392;SDS011;3229;42.674;23.282;2022-08-23T03:11:41;8.30;;;7.45;;
6392;SDS011;3229;42.674;23.282;2022-08-23T03:14:10;8.55;;;7.05;;
6392;SDS011;3229;42.674;23.282;2022-08-23T03:16:37;8.45;;;7.65;;
6392;SDS011;3229;42.674;23.282;2022-08-23T03:19:04;8.20;;;7.40;;
6392;SDS011;3229;42.674;23.282;2022-08-23T03:21:31;7.45;;;6.75;;
6392;SDS011;3229;42.674;23.282;2022-08-23T03:23:58;7.85;;;6.55;;
6392;SDS011;3229;42.674;23.282;2022-08-23T03:26:27;9.20;;;7.40;;
6392;SDS011;3229;42.674;23.282;2022-08-23T03:28:54;8.63;;;6.97;;
6392;SDS011;3229;42.674;23.282;2022-08-23T03:31:21;7.88;;;6.90;;
6392;SDS011;3229;42.674;23.282;2022-08-23T03:33:47;8.40;;;6.43;;
6392;SDS011;3229;42.674;23.282;2022-08-23T03:36:14;10.32;;;6.72;;
6392;SDS011;3229;42.674;23.282;2022-08-23T03:38:41;7.50;;;6.80;;
6392;SDS011;3229;42.674;23.282;2022-08-23T03:41:09;7.40;;;6.70;;
6392;SDS011;3229;42.674;23.282;2022-08-23T03:43:38;7.97;;;7.18;;
6392;SDS011;3229;42.674;23.282;2022-08-23T03:46:05;7.55;;;6.85;;
6392;SDS011;3229;42.674;23.282;2022-08-23T03:48:33;7.50;;;6.72;;
6392;SDS011;3229;42.674;23.282;2022-08-23T03:51:01;10.80;;;7.03;;
6392;SDS011;3229;42.674;23.282;2022-08-23T03:53:28;7.80;;;6.78;;
6392;SDS011;3229;42.674;23.282;2022-08-23T03:55:55;9.00;;;7.30;;
6392;SDS011;3229;42.674;23.282;2022-08-23T03:58:22;9.50;;;7.07;;
6392;SDS011;3229;42.674;23.282;2022-08-23T04:00:53;8.32;;;7.45;;
6392;SDS011;3229;42.674;23.282;2022-08-23T04:03:21;10.52;;;9.07;;
6392;SDS011;3229;42.674;23.282;2022-08-23T04:05:48;12.13;;;9.68;;
6392;SDS011;3229;42.674;23.282;2022-08-23T04:08:15;16.80;;;11.77;;
6392;SDS011;3229;42.674;23.282;2022-08-23T04:10:42;13.23;;;10.75;;
6392;SDS011;3229;42.674;23.282;2022-08-23T04:13:09;18.17;;;12.27;;
6392;SDS011;3229;42.674;23.282;2022-08-23T04:15:41;15.38;;;12.30;;
6392;SDS011;3229;42.674;23.282;2022-08-23T04:18:09;14.75;;;11.75;;
6392;SDS011;3229;42.674;23.282;2022-08-23T04:20:37;17.70;;;13.10;;
6392;SDS011;3229;42.674;23.282;2022-08-23T04:23:04;14.20;;;12.65;;
6392;SDS011;3229;42.674;23.282;2022-08-23T04:25:31;18.67;;;14.25;;
6392;SDS011;3229;42.674;23.282;2022-08-23T04:27:58;19.83;;;13.35;;
6392;SDS011;3229;42.674;23.282;2022-08-23T04:30:25;17.08;;;13.65;;
6392;SDS011;3229;42.674;23.282;2022-08-23T04:32:53;16.58;;;13.57;;
6392;SDS011;3229;42.674;23.282;2022-08-23T04:35:21;18.73;;;13.20;;
6392;SDS011;3229;42.674;23.282;2022-08-23T04:37:49;17.75;;;15.25;;
6392;SDS011;3229;42.674;23.282;2022-08-23T04:40:16;17.55;;;14.57;;
6392;SDS011;3229;42.674;23.282;2022-08-23T04:43:00;20.33;;;14.70;;
6392;SDS011;3229;42.674;23.282;2022-08-23T04:45:28;19.02;;;16.58;;
6392;SDS011;3229;42.674;23.282;2022-08-23T04:47:56;18.98;;;15.25;;
6392;SDS011;3229;42.674;23.282;2022-08-23T04:50:24;19.25;;;16.05;;
6392;SDS011;3229;42.674;23.282;2022-08-23T04:52:51;25.70;;;16.27;;
6392;SDS011;3229;42.674;23.282;2022-08-23T04:55:18;21.33;;;17.77;;
6392;SDS011;3229;42.674;23.282;2022-08-23T04:57:46;24.60;;;19.90;;
6392;SDS011;3229;42.674;23.282;2022-08-23T05:00:13;25.70;;;19.73;;
6392;SDS011;3229;42.674;23.282;2022-08-23T05:02:41;28.45;;;21.90;;
6392;SDS011;3229;42.674;23.282;2022-08-23T05:05:08;29.07;;;22.43;;
6392;SDS011;3229;42.674;23.282;2022-08-23T05:07:37;28.33;;;21.65;;
6392;SDS011;3229;42.674;23.282;2022-08-23T05:10:06;24.80;;;22.02;;
6392;SDS011;3229;42.674;23.282;2022-08-23T05:12:34;27.67;;;22.40;;
6392;SDS011;3229;42.674;23.282;2022-08-23T05:15:01;26.60;;;22.17;;
6392;SDS011;3229;42.674;23.282;2022-08-23T05:17:28;31.23;;;21.83;;
6392;SDS011;3229;42.674;23.282;2022-08-23T05:19:55;25.80;;;22.10;;
6392;SDS011;3229;42.674;23.282;2022-08-23T05:22:22;29.08;;;23.30;;
6392;SDS011;3229;42.674;23.282;2022-08-23T05:24:50;27.63;;;23.48;;
6392;SDS011;3229;42.674;23.282;2022-08-23T05:27:17;27.70;;;23.13;;
6392;SDS011;3229;42.674;23.282;2022-08-23T05:29:44;27.27;;;20.93;;
6392;SDS011;3229;42.674;23.282;2022-08-23T05:32:11;23.45;;;19.05;;
6392;SDS011;3229;42.674;23.282;2022-08-23T05:34:38;20.90;;;18.27;;
6392;SDS011;3229;42.674;23.282;2022-08-23T05:37:05;19.30;;;17.20;;
6392;SDS011;3229;42.674;23.282;2022-08-23T05:39:32;20.73;;;18.35;;
6392;SDS011;3229;42.674;23.282;2022-08-23T05:42:00;22.15;;;17.63;;
6392;SDS011;3229;42.674;23.282;2022-08-23T05:44:27;21.20;;;17.98;;
6392;SDS011;3229;42.674;23.282;2022-08-23T05:46:53;24.13;;;17.30;;
6392;SDS011;3229;42.674;23.282;2022-08-23T05:49:20;22.67;;;18.58;;
6392;SDS011;3229;42.674;23.282;2022-08-23T05:51:47;18.33;;;16.42;;
6392;SDS011;3229;42.674;23.282;2022-08-23T05:54:14;19.33;;;15.88;;
6392;SDS011;3229;42.674;23.282;2022-08-23T05:56:42;20.40;;;16.33;;
6392;SDS011;3229;42.674;23.282;2022-08-23T05:59:11;19.70;;;16.08;;
6392;SDS011;3229;42.674;23.282;2022-08-23T06:01:41;20.00;;;16.98;;
6392;SDS011;3229;42.674;23.282;2022-08-23T06:04:10;17.67;;;15.80;;
6392;SDS011;3229;42.674;23.282;2022-08-23T06:06:38;22.73;;;15.93;;
6392;SDS011;3229;42.674;23.282;2022-08-23T06:09:07;16.95;;;14.85;;
6392;SDS011;3229;42.674;23.282;2022-08-23T06:11:36;19.98;;;15.30;;
6392;SDS011;3229;42.674;23.282;2022-08-23T06:14:04;15.38;;;13.80;;
6392;SDS011;3229;42.674;23.282;2022-08-23T06:16:36;14.98;;;13.38;;
6392;SDS011;3229;42.674;23.282;2022-08-23T06:19:05;16.20;;;13.52;;
6392;SDS011;3229;42.674;23.282;2022-08-23T06:21:33;14.07;;;12.70;;
6392;SDS011;3229;42.674;23.282;2022-08-23T06:24:01;15.02;;;13.45;;
6392;SDS011;3229;42.674;23.282;2022-08-23T06:26:30;18.30;;;13.40;;
6392;SDS011;3229;42.674;23.282;2022-08-23T06:28:59;15.30;;;13.00;;
6392;SDS011;3229;42.674;23.282;2022-08-23T06:31:29;16.90;;;13.75;;
6392;SDS011;3229;42.674;23.282;2022-08-23T06:34:14;13.13;;;11.82;;
6392;SDS011;3229;42.674;23.282;2022-08-23T06:36:44;13.02;;;11.60;;
6392;SDS011;3229;42.674;23.282;2022-08-23T06:39:12;14.32;;;12.65;;
6392;SDS011;3229;42.674;23.282;2022-08-23T06:41:40;16.23;;;12.27;;
6392;SDS011;3229;42.674;23.282;2022-08-23T06:44:07;13.55;;;11.38;;
6392;SDS011;3229;42.674;23.282;2022-08-23T06:46:34;14.52;;;11.85;;
6392;SDS011;3229;42.674;23.282;2022-08-23T06:49:02;13.85;;;12.32;;
6392;SDS011;3229;42.674;23.282;2022-08-23T06:51:32;13.45;;;11.52;;
6392;SDS011;3229;42.674;23.282;2022-08-23T06:54:03;14.23;;;12.43;;
6392;SDS011;3229;42.674;23.282;2022-08-23T06:56:31;11.55;;;10.45;;
6392;SDS011;3229;42.674;23.282;2022-08-23T06:58:58;13.65;;;12.02;;
6392;SDS011;3229;42.674;23.282;2022-08-23T07:01:29;14.80;;;12.15;;
6392;SDS011;3229;42.674;23.282;2022-08-23T07:03:59;12.43;;;11.13;;
6392;SDS011;3229;42.674;23.282;2022-08-23T07:06:27;15.07;;;13.18;;
6392;SDS011;3229;42.674;23.282;2022-08-23T07:08:57;12.13;;;10.93;;
6392;SDS011;3229;42.674;23.282;2022-08-23T07:11:24;13.93;;;12.02;;
6392;SDS011;3229;42.674;23.282;2022-08-23T07:13:56;12.20;;;10.85;;
6392;SDS011;3229;42.674;23.282;2022-08-23T07:16:24;12.50;;;11.30;;
6392;SDS011;3229;42.674;23.282;2022-08-23T07:18:51;11.73;;;10.23;;
6392;SDS011;3229;42.674;23.282;2022-08-23T07:21:19;11.27;;;10.07;;
6392;SDS011;3229;42.674;23.282;2022-08-23T07:23:46;12.25;;;11.05;;
6392;SDS011;3229;42.674;23.282;2022-08-23T07:26:15;12.13;;;11.00;;
6392;SDS011;3229;42.674;23.282;2022-08-23T07:28:42;17.88;;;12.88;;
6392;SDS011;3229;42.674;23.282;2022-08-23T07:31:11;13.63;;;11.45;;
6392;SDS011;3229;42.674;23.282;2022-08-23T07:33:40;13.85;;;12.45;;
6392;SDS011;3229;42.674;23.282;2022-08-23T07:36:09;14.13;;;11.73;;
6392;SDS011;3229;42.674;23.282;2022-08-23T07:38:38;13.15;;;11.68;;
6392;SDS011;3229;42.674;23.282;2022-08-23T07:41:05;12.57;;;11.35;;
6392;SDS011;3229;42.674;23.282;2022-08-23T07:43:34;11.75;;;10.50;;
6392;SDS011;3229;42.674;23.282;2022-08-23T07:46:01;14.60;;;12.48;;
6392;SDS011;3229;42.674;23.282;2022-08-23T07:48:28;14.07;;;12.52;;
6392;SDS011;3229;42.674;23.282;2022-08-23T07:50:56;15.63;;;12.20;;
6392;SDS011;3229;42.674;23.282;2022-08-23T07:53:24;14.98;;;12.10;;
6392;SDS011;3229;42.674;23.282;2022-08-23T07:55:52;16.55;;;13.57;;
6392;SDS011;3229;42.674;23.282;2022-08-23T07:58:19;15.27;;;12.20;;
6392;SDS011;3229;42.674;23.282;2022-08-23T08:00:47;13.57;;;11.25;;
6392;SDS011;3229;42.674;23.282;2022-08-23T08:03:14;13.85;;;12.00;;
6392;SDS011;3229;42.674;23.282;2022-08-23T08:05:41;17.25;;;13.07;;
6392;SDS011;3229;42.674;23.282;2022-08-23T08:08:08;14.48;;;12.95;;
6392;SDS011;3229;42.674;23.282;2022-08-23T08:10:36;13.65;;;12.25;;
6392;SDS011;3229;42.674;23.282;2022-08-23T08:13:05;13.13;;;11.73;;
6392;SDS011;3229;42.674;23.282;2022-08-23T08:15:32;13.80;;;12.18;;
6392;SDS011;3229;42.674;23.282;2022-08-23T08:18:00;14.63;;;13.10;;
6392;SDS011;3229;42.674;23.282;2022-08-23T08:20:27;15.68;;;12.50;;
6392;SDS011;3229;42.674;23.282;2022-08-23T08:22:55;16.30;;;13.40;;
6392;SDS011;3229;42.674;23.282;2022-08-23T08:25:23;14.35;;;12.35;;
6392;SDS011;3229;42.674;23.282;2022-08-23T08:27:49;14.95;;;13.45;;
6392;SDS011;3229;42.674;23.282;2022-08-23T08:30:16;16.10;;;12.35;;
6392;SDS011;3229;42.674;23.282;2022-08-23T08:32:43;18.27;;;13.60;;
6392;SDS011;3229;42.674;23.282;2022-08-23T08:35:12;22.58;;;13.38;;
6392;SDS011;3229;42.674;23.282;2022-08-23T08:37:39;16.23;;;12.68;;
6392;SDS011;3229;42.674;23.282;2022-08-23T08:40:06;15.40;;;13.85;;
6392;SDS011;3229;42.674;23.282;2022-08-23T08:42:43;13.93;;;12.52;;
6392;SDS011;3229;42.674;23.282;2022-08-23T08:45:20;14.45;;;12.90;;
6392;SDS011;3229;42.674;23.282;2022-08-23T08:47:52;16.25;;;13.10;;
6392;SDS011;3229;42.674;23.282;2022-08-23T08:50:29;15.30;;;13.70;;
6392;SDS011;3229;42.674;23.282;2022-08-23T08:53:02;15.13;;;12.80;;
6392;SDS011;3229;42.674;23.282;2022-08-23T08:55:35;14.68;;;12.73;;
6392;SDS011;3229;42.674;23.282;2022-08-23T08:58:11;15.75;;;12.77;;
6392;SDS011;3229;42.674;23.282;2022-08-23T09:00:44;15.75;;;14.02;;
6392;SDS011;3229;42.674;23.282;2022-08-23T09:03:12;20.45;;;13.98;;
6392;SDS011;3229;42.674;23.282;2022-08-23T09:05:50;15.23;;;12.50;;
6392;SDS011;3229;42.674;23.282;2022-08-23T09:08:29;18.90;;;12.77;;
6392;SDS011;3229;42.674;23.282;2022-08-23T09:11:15;13.75;;;12.43;;
6392;SDS011;3229;42.674;23.282;2022-08-23T09:14:02;14.52;;;12.93;;
6392;SDS011;3229;42.674;23.282;2022-08-23T09:16:48;14.13;;;12.65;;
6392;SDS011;3229;42.674;23.282;2022-08-23T09:19:17;14.13;;;12.70;;
6392;SDS011;3229;42.674;23.282;2022-08-23T09:21:47;14.15;;;12.07;;
6392;SDS011;3229;42.674;23.282;2022-08-23T09:24:20;17.45;;;12.00;;
6392;SDS011;3229;42.674;23.282;2022-08-23T09:26:47;17.60;;;11.85;;
6392;SDS011;3229;42.674;23.282;2022-08-23T09:29:18;13.63;;;11.98;;
6392;SDS011;3229;42.674;23.282;2022-08-23T09:31:47;12.98;;;11.55;;
6392;SDS011;3229;42.674;23.282;2022-08-23T09:34:19;16.60;;;11.18;;
6392;SDS011;3229;42.674;23.282;2022-08-23T09:37:08;12.07;;;10.48;;
6392;SDS011;3229;42.674;23.282;2022-08-23T09:39:40;19.33;;;10.98;;
6392;SDS011;3229;42.674;23.282;2022-08-23T09:42:08;19.40;;;12.75;;
6392;SDS011;3229;42.674;23.282;2022-08-23T09:44:51;13.43;;;11.57;;
6392;SDS011;3229;42.674;23.282;2022-08-23T09:47:18;14.63;;;12.00;;
6392;SDS011;3229;42.674;23.282;2022-08-23T09:49:47;13.27;;;11.95;;
6392;SDS011;3229;42.674;23.282;2022-08-23T09:52:20;13.85;;;11.85;;
6392;SDS011;3229;42.674;23.282;2022-08-23T09:54:54;16.23;;;14.52;;
6392;SDS011;3229;42.674;23.282;2022-08-23T09:57:24;17.55;;;12.82;;
6392;SDS011;3229;42.674;23.282;2022-08-23T09:59:53;19.80;;;12.55;;
6392;SDS011;3229;42.674;23.282;2022-08-23T10:02:23;15.48;;;12.48;;
6392;SDS011;3229;42.674;23.282;2022-08-23T10:04:55;12.75;;;11.45;;
6392;SDS011;3229;42.674;23.282;2022-08-23T10:07:31;13.35;;;11.25;;
6392;SDS011;3229;42.674;23.282;2022-08-23T10:10:14;12.98;;;11.68;;
6392;SDS011;3229;42.674;23.282;2022-08-23T10:12:44;14.88;;;11.93;;
6392;SDS011;3229;42.674;23.282;2022-08-23T10:15:11;14.45;;;12.95;;
6392;SDS011;3229;42.674;23.282;2022-08-23T10:17:41;13.82;;;11.38;;
6392;SDS011;3229;42.674;23.282;2022-08-23T10:20:20;12.18;;;10.55;;
6392;SDS011;3229;42.674;23.282;2022-08-23T10:23:01;11.02;;;9.93;;
6392;SDS011;3229;42.674;23.282;2022-08-23T10:25:37;11.52;;;9.88;;
6392;SDS011;3229;42.674;23.282;2022-08-23T10:28:10;14.10;;;10.77;;
6392;SDS011;3229;42.674;23.282;2022-08-23T10:31:01;12.88;;;10.38;;
6392;SDS011;3229;42.674;23.282;2022-08-23T10:33:38;10.55;;;9.52;;
6392;SDS011;3229;42.674;23.282;2022-08-23T10:36:13;11.50;;;10.13;;
6392;SDS011;3229;42.674;23.282;2022-08-23T10:38:47;9.25;;;8.45;;
6392;SDS011;3229;42.674;23.282;2022-08-23T10:41:32;10.80;;;9.65;;
6392;SDS011;3229;42.674;23.282;2022-08-23T10:44:17;11.93;;;9.88;;
6392;SDS011;3229;42.674;23.282;2022-08-23T10:46:53;10.35;;;9.35;;
6392;SDS011;3229;42.674;23.282;2022-08-23T10:49:35;10.95;;;9.40;;
6392;SDS011;3229;42.674;23.282;2022-08-23T10:52:05;14.70;;;8.77;;
6392;SDS011;3229;42.674;23.282;2022-08-23T10:54:42;12.38;;;9.73;;
6392;SDS011;3229;42.674;23.282;2022-08-23T10:57:23;10.63;;;8.63;;
6392;SDS011;3229;42.674;23.282;2022-08-23T10:59:59;10.50;;;9.00;;
6392;SDS011;3229;42.674;23.282;2022-08-23T11:02:28;9.45;;;8.55;;
6392;SDS011;3229;42.674;23.282;2022-08-23T11:05:04;10.07;;;9.07;;
6392;SDS011;3229;42.674;23.282;2022-08-23T11:07:42;10.90;;;8.65;;
6392;SDS011;3229;42.674;23.282;2022-08-23T11:10:27;10.18;;;8.38;;
6392;SDS011;3229;42.674;23.282;2022-08-23T11:13:00;11.27;;;7.78;;
6392;SDS011;3229;42.674;23.282;2022-08-23T11:15:36;9.93;;;8.43;;
6392;SDS011;3229;42.674;23.282;2022-08-23T11:18:08;9.50;;;8.52;;
6392;SDS011;3229;42.674;23.282;2022-08-23T11:23:35;9.52;;;8.50;;
6392;SDS011;3229;42.674;23.282;2022-08-23T11:29:32;9.07;;;8.00;;
6392;SDS011;3229;42.674;23.282;2022-08-23T11:32:09;9.70;;;8.70;;
6392;SDS011;3229;42.674;23.282;2022-08-23T11:35:00;10.38;;;7.72;;
6392;SDS011;3229;42.674;23.282;2022-08-23T11:37:49;11.82;;;8.25;;
6392;SDS011;3229;42.674;23.282;2022-08-23T11:40:35;9.38;;;7.25;;
6392;SDS011;3229;42.674;23.282;2022-08-23T11:43:22;8.70;;;6.53;;
6392;SDS011;3229;42.674;23.282;2022-08-23T11:49:00;8.50;;;7.60;;
6392;SDS011;3229;42.674;23.282;2022-08-23T11:51:48;7.55;;;6.78;;
6392;SDS011;3229;42.674;23.282;2022-08-23T11:54:30;7.40;;;6.70;;
6392;SDS011;3229;42.674;23.282;2022-08-23T11:57:13;11.50;;;8.45;;
6392;SDS011;3229;42.674;23.282;2022-08-23T12:00:05;8.05;;;7.22;;
6392;SDS011;3229;42.674;23.282;2022-08-23T12:02:47;8.75;;;6.90;;
6392;SDS011;3229;42.674;23.282;2022-08-23T12:05:27;8.52;;;7.63;;
6392;SDS011;3229;42.674;23.282;2022-08-23T12:08:28;10.18;;;7.88;;
6392;SDS011;3229;42.674;23.282;2022-08-23T12:11:03;8.80;;;7.90;;
6392;SDS011;3229;42.674;23.282;2022-08-23T12:19:16;10.00;;;7.35;;
6392;SDS011;3229;42.674;23.282;2022-08-23T12:22:04;9.48;;;7.65;;
6392;SDS011;3229;42.674;23.282;2022-08-23T12:24:40;9.52;;;6.82;;
6392;SDS011;3229;42.674;23.282;2022-08-23T12:27:12;7.55;;;6.80;;
6392;SDS011;3229;42.674;23.282;2022-08-23T12:29:53;8.82;;;7.15;;
6392;SDS011;3229;42.674;23.282;2022-08-23T12:32:27;12.85;;;8.20;;
6392;SDS011;3229;42.674;23.282;2022-08-23T12:35:14;9.07;;;7.72;;
6392;SDS011;3229;42.674;23.282;2022-08-23T12:37:57;8.38;;;7.53;;
6392;SDS011;3229;42.674;23.282;2022-08-23T12:40:31;9.38;;;7.05;;
6392;SDS011;3229;42.674;23.282;2022-08-23T12:43:03;9.10;;;7.20;;
6392;SDS011;3229;42.674;23.282;2022-08-23T12:45:37;8.43;;;6.57;;
6392;SDS011;3229;42.674;23.282;2022-08-23T12:48:07;7.18;;;5.78;;
6392;SDS011;3229;42.674;23.282;2022-08-23T12:50:39;7.13;;;4.43;;
6392;SDS011;3229;42.674;23.282;2022-08-23T12:53:08;7.75;;;5.00;;
6392;SDS011;3229;42.674;23.282;2022-08-23T12:55:37;6.63;;;4.55;;
6392;SDS011;3229;42.674;23.282;2022-08-23T12:58:06;4.97;;;4.50;;
6392;SDS011;3229;42.674;23.282;2022-08-23T13:00:35;7.60;;;4.78;;
6392;SDS011;3229;42.674;23.282;2022-08-23T13:03:16;5.00;;;4.55;;
6392;SDS011;3229;42.674;23.282;2022-08-23T13:05:50;4.90;;;4.50;;
6392;SDS011;3229;42.674;23.282;2022-08-23T13:08:21;5.18;;;4.70;;
6392;SDS011;3229;42.674;23.282;2022-08-23T13:10:51;5.55;;;4.95;;
6392;SDS011;3229;42.674;23.282;2022-08-23T13:13:20;5.50;;;4.85;;
6392;SDS011;3229;42.674;23.282;2022-08-23T13:15:51;8.15;;;4.95;;
6392;SDS011;3229;42.674;23.282;2022-08-23T13:18:23;9.18;;;4.82;;
6392;SDS011;3229;42.674;23.282;2022-08-23T13:23:55;7.20;;;6.10;;
6392;SDS011;3229;42.674;23.282;2022-08-23T13:26:24;5.63;;;5.22;;
6392;SDS011;3229;42.674;23.282;2022-08-23T13:29:00;7.57;;;6.38;;
6392;SDS011;3229;42.674;23.282;2022-08-23T13:34:28;8.45;;;7.25;;
6392;SDS011;3229;42.674;23.282;2022-08-23T13:36:58;9.88;;;6.93;;
6392;SDS011;3229;42.674;23.282;2022-08-23T13:39:25;8.30;;;6.38;;
6392;SDS011;3229;42.674;23.282;2022-08-23T13:41:55;9.30;;;7.05;;
6392;SDS011;3229;42.674;23.282;2022-08-23T13:44:22;8.20;;;7.32;;
6392;SDS011;3229;42.674;23.282;2022-08-23T13:46:50;10.80;;;8.15;;
6392;SDS011;3229;42.674;23.282;2022-08-23T13:49:18;8.23;;;7.43;;
6392;SDS011;3229;42.674;23.282;2022-08-23T13:52:03;11.18;;;7.65;;
6392;SDS011;3229;42.674;23.282;2022-08-23T13:54:34;9.23;;;6.72;;
6392;SDS011;3229;42.674;23.282;2022-08-23T13:57:02;14.00;;;9.32;;
6392;SDS011;3229;42.674;23.282;2022-08-23T13:59:33;10.85;;;7.72;;
6392;SDS011;3229;42.674;23.282;2022-08-23T14:02:04;9.70;;;7.53;;
6392;SDS011;3229;42.674;23.282;2022-08-23T14:04:35;10.27;;;7.75;;
6392;SDS011;3229;42.674;23.282;2022-08-23T14:07:04;9.57;;;7.18;;
6392;SDS011;3229;42.674;23.282;2022-08-23T14:09:31;8.38;;;7.03;;
6392;SDS011;3229;42.674;23.282;2022-08-23T14:12:01;12.35;;;7.63;;
6392;SDS011;3229;42.674;23.282;2022-08-23T14:14:30;8.20;;;6.82;;
6392;SDS011;3229;42.674;23.282;2022-08-23T14:17:00;15.10;;;7.45;;
6392;SDS011;3229;42.674;23.282;2022-08-23T14:19:27;10.60;;;7.28;;
6392;SDS011;3229;42.674;23.282;2022-08-23T14:21:55;10.68;;;7.88;;
6392;SDS011;3229;42.674;23.282;2022-08-23T14:24:23;13.50;;;8.70;;
6392;SDS011;3229;42.674;23.282;2022-08-23T14:26:51;15.23;;;8.48;;
6392;SDS011;3229;42.674;23.282;2022-08-23T14:29:19;10.20;;;7.65;;
6392;SDS011;3229;42.674;23.282;2022-08-23T14:31:46;8.25;;;6.47;;
6392;SDS011;3229;42.674;23.282;2022-08-23T14:34:13;12.15;;;7.07;;
6392;SDS011;3229;42.674;23.282;2022-08-23T14:36:40;8.45;;;7.00;;
6392;SDS011;3229;42.674;23.282;2022-08-23T14:39:07;10.45;;;5.22;;
6392;SDS011;3229;42.674;23.282;2022-08-23T14:41:35;5.38;;;4.50;;
6392;SDS011;3229;42.674;23.282;2022-08-23T14:44:02;5.10;;;4.60;;
6392;SDS011;3229;42.674;23.282;2022-08-23T14:46:29;7.85;;;4.90;;
6392;SDS011;3229;42.674;23.282;2022-08-23T14:48:56;5.07;;;4.40;;
6392;SDS011;3229;42.674;23.282;2022-08-23T14:51:24;5.18;;;4.53;;
6392;SDS011;3229;42.674;23.282;2022-08-23T14:53:53;8.00;;;4.97;;
6392;SDS011;3229;42.674;23.282;2022-08-23T14:56:20;8.27;;;5.03;;
6392;SDS011;3229;42.674;23.282;2022-08-23T14:58:49;7.30;;;4.45;;
6392;SDS011;3229;42.674;23.282;2022-08-23T15:01:16;5.63;;;4.40;;
6392;SDS011;3229;42.674;23.282;2022-08-23T15:03:44;5.60;;;4.80;;
6392;SDS011;3229;42.674;23.282;2022-08-23T15:06:12;4.82;;;4.43;;
6392;SDS011;3229;42.674;23.282;2022-08-23T15:08:41;10.63;;;5.10;;
6392;SDS011;3229;42.674;23.282;2022-08-23T15:11:08;6.72;;;4.95;;
6392;SDS011;3229;42.674;23.282;2022-08-23T15:13:36;5.47;;;4.80;;
6392;SDS011;3229;42.674;23.282;2022-08-23T15:16:06;6.40;;;5.22;;
6392;SDS011;3229;42.674;23.282;2022-08-23T15:18:34;6.18;;;5.55;;
6392;SDS011;3229;42.674;23.282;2022-08-23T15:21:04;6.10;;;5.50;;
6392;SDS011;3229;42.674;23.282;2022-08-23T15:23:31;7.65;;;6.07;;
6392;SDS011;3229;42.674;23.282;2022-08-23T15:25:58;13.55;;;6.75;;